KONL/ONL METAR and TAF weather

Enter ICAO airport designator
Station Type Date Time Source
KONL METAR 2019/02/20 17:15 UTC NOAA

KONL 201715Z AUTO 25009KT 3SM -SN SCT029 BKN035 OVC041 M06/M10 A2961 RMK AO2 T10651097


Station Type Date Time Source
KONL Decoded METAR 2019/02/20 17:15 UTC NOAA

O'Neill / Baker Field, NE, United States (KONL) 42-28N 098-41W
Feb 20, 2019 - 12:15 PM EST / 2019.02.20 1715 UTC
Wind: from the WSW (250 degrees) at 10 MPH (9 KT):0
Visibility: 3 mile(s):0
Sky conditions: overcast
Weather: light snow
Temperature: 20.3 F (-6.5 C)
Windchill: 8 F (-13 C):1
Dew Point: 14.5 F (-9.7 C)
Relative Humidity: 77%
Pressure (altimeter): 29.61 in. Hg (1002 hPa)
ob: KONL 201715Z AUTO 25009KT 3SM -SN SCT029 BKN035 OVC041 M06/M10 A2961 RMK AO2 T10651097
cycle: 17

Station Type Date Time Source
KONL TAF UTC NOAA

Error!


Example: see airport list